sensor_id;sensor_type;location;lat;lon;timestamp;P1;durP1;ratioP1;P2;durP2;ratioP2
34828;SDS011;21042;47.620;12.188;2022-12-07T00:01:26;23.63;;;9.82;;
34828;SDS011;21042;47.620;12.188;2022-12-07T00:03:57;18.65;;;8.98;;
34828;SDS011;21042;47.620;12.188;2022-12-07T00:06:32;23.45;;;9.90;;
34828;SDS011;21042;47.620;12.188;2022-12-07T00:09:04;17.73;;;8.40;;
34828;SDS011;21042;47.620;12.188;2022-12-07T00:11:32;18.77;;;8.77;;
34828;SDS011;21042;47.620;12.188;2022-12-07T00:14:00;24.40;;;8.63;;
34828;SDS011;21042;47.620;12.188;2022-12-07T00:16:30;20.45;;;8.15;;
34828;SDS011;21042;47.620;12.188;2022-12-07T00:18:58;19.92;;;8.82;;
34828;SDS011;21042;47.620;12.188;2022-12-07T00:23:55;17.02;;;7.10;;
34828;SDS011;21042;47.620;12.188;2022-12-07T00:26:30;15.57;;;6.93;;
34828;SDS011;21042;47.620;12.188;2022-12-07T00:29:04;15.60;;;8.02;;
34828;SDS011;21042;47.620;12.188;2022-12-07T00:31:34;16.95;;;8.23;;
34828;SDS011;21042;47.620;12.188;2022-12-07T00:34:05;15.75;;;8.00;;
34828;SDS011;21042;47.620;12.188;2022-12-07T00:36:33;18.23;;;8.63;;
34828;SDS011;21042;47.620;12.188;2022-12-07T00:39:00;16.65;;;6.72;;
34828;SDS011;21042;47.620;12.188;2022-12-07T00:41:28;16.48;;;8.43;;
34828;SDS011;21042;47.620;12.188;2022-12-07T00:43:56;20.27;;;9.15;;
34828;SDS011;21042;47.620;12.188;2022-12-07T00:46:24;18.13;;;9.18;;
34828;SDS011;21042;47.620;12.188;2022-12-07T00:48:51;17.50;;;9.10;;
34828;SDS011;21042;47.620;12.188;2022-12-07T00:51:20;17.35;;;9.05;;
34828;SDS011;21042;47.620;12.188;2022-12-07T00:53:48;27.33;;;9.25;;
34828;SDS011;21042;47.620;12.188;2022-12-07T00:56:16;18.90;;;8.98;;
34828;SDS011;21042;47.620;12.188;2022-12-07T00:58:55;17.08;;;9.15;;
34828;SDS011;21042;47.620;12.188;2022-12-07T01:01:23;19.42;;;9.75;;
34828;SDS011;21042;47.620;12.188;2022-12-07T01:03:51;18.20;;;9.00;;
34828;SDS011;21042;47.620;12.188;2022-12-07T01:06:19;16.75;;;8.63;;
34828;SDS011;21042;47.620;12.188;2022-12-07T01:08:47;19.20;;;8.77;;
34828;SDS011;21042;47.620;12.188;2022-12-07T01:11:16;18.88;;;9.10;;
34828;SDS011;21042;47.620;12.188;2022-12-07T01:13:44;15.48;;;8.13;;
34828;SDS011;21042;47.620;12.188;2022-12-07T01:16:12;16.67;;;8.15;;
34828;SDS011;21042;47.620;12.188;2022-12-07T01:18:41;17.00;;;8.25;;
34828;SDS011;21042;47.620;12.188;2022-12-07T01:21:11;17.67;;;8.45;;
34828;SDS011;21042;47.620;12.188;2022-12-07T01:23:42;15.00;;;8.15;;
34828;SDS011;21042;47.620;12.188;2022-12-07T01:26:11;18.63;;;8.05;;
34828;SDS011;21042;47.620;12.188;2022-12-07T01:28:39;27.42;;;11.40;;
34828;SDS011;21042;47.620;12.188;2022-12-07T01:31:11;24.40;;;9.45;;
34828;SDS011;21042;47.620;12.188;2022-12-07T01:33:43;31.75;;;11.40;;
34828;SDS011;21042;47.620;12.188;2022-12-07T01:36:16;25.33;;;10.38;;
34828;SDS011;21042;47.620;12.188;2022-12-07T01:38:44;24.20;;;9.93;;
34828;SDS011;21042;47.620;12.188;2022-12-07T01:41:12;19.48;;;10.20;;
34828;SDS011;21042;47.620;12.188;2022-12-07T01:46:44;19.23;;;8.98;;
34828;SDS011;21042;47.620;12.188;2022-12-07T01:49:17;23.52;;;8.82;;
34828;SDS011;21042;47.620;12.188;2022-12-07T01:54:59;25.95;;;9.95;;
34828;SDS011;21042;47.620;12.188;2022-12-07T01:57:45;21.88;;;10.27;;
34828;SDS011;21042;47.620;12.188;2022-12-07T02:00:14;22.67;;;9.60;;
34828;SDS011;21042;47.620;12.188;2022-12-07T02:02:47;21.00;;;8.65;;
34828;SDS011;21042;47.620;12.188;2022-12-07T02:05:35;19.15;;;8.88;;
34828;SDS011;21042;47.620;12.188;2022-12-07T02:08:04;18.98;;;9.05;;
34828;SDS011;21042;47.620;12.188;2022-12-07T02:10:31;20.15;;;8.85;;
34828;SDS011;21042;47.620;12.188;2022-12-07T02:29:45;18.13;;;8.18;;
34828;SDS011;21042;47.620;12.188;2022-12-07T02:35:07;19.20;;;8.70;;
34828;SDS011;21042;47.620;12.188;2022-12-07T02:43:04;17.52;;;8.63;;
34828;SDS011;21042;47.620;12.188;2022-12-07T02:45:33;20.55;;;9.30;;
34828;SDS011;21042;47.620;12.188;2022-12-07T02:48:03;17.85;;;9.18;;
34828;SDS011;21042;47.620;12.188;2022-12-07T02:50:31;21.80;;;9.40;;
34828;SDS011;21042;47.620;12.188;2022-12-07T02:52:58;19.15;;;9.35;;
34828;SDS011;21042;47.620;12.188;2022-12-07T02:55:26;22.33;;;9.07;;
34828;SDS011;21042;47.620;12.188;2022-12-07T02:58:12;17.52;;;8.85;;
34828;SDS011;21042;47.620;12.188;2022-12-07T03:01:46;24.63;;;9.38;;
34828;SDS011;21042;47.620;12.188;2022-12-07T03:06:43;17.67;;;8.88;;
34828;SDS011;21042;47.620;12.188;2022-12-07T03:09:22;15.75;;;8.20;;
34828;SDS011;21042;47.620;12.188;2022-12-07T03:12:01;17.77;;;9.07;;
34828;SDS011;21042;47.620;12.188;2022-12-07T03:14:34;22.00;;;8.93;;
34828;SDS011;21042;47.620;12.188;2022-12-07T03:17:12;17.15;;;8.55;;
34828;SDS011;21042;47.620;12.188;2022-12-07T03:19:46;22.00;;;9.85;;
34828;SDS011;21042;47.620;12.188;2022-12-07T03:22:15;24.17;;;10.15;;
34828;SDS011;21042;47.620;12.188;2022-12-07T03:24:48;22.33;;;10.05;;
34828;SDS011;21042;47.620;12.188;2022-12-07T03:27:20;24.75;;;11.57;;
34828;SDS011;21042;47.620;12.188;2022-12-07T03:29:56;22.30;;;10.98;;
34828;SDS011;21042;47.620;12.188;2022-12-07T03:32:32;20.77;;;10.73;;
34828;SDS011;21042;47.620;12.188;2022-12-07T03:35:19;23.30;;;10.05;;
34828;SDS011;21042;47.620;12.188;2022-12-07T03:38:05;18.35;;;9.70;;
34828;SDS011;21042;47.620;12.188;2022-12-07T03:41:02;18.98;;;8.98;;
34828;SDS011;21042;47.620;12.188;2022-12-07T03:43:51;20.40;;;9.32;;
34828;SDS011;21042;47.620;12.188;2022-12-07T03:54:51;16.05;;;8.80;;
34828;SDS011;21042;47.620;12.188;2022-12-07T03:57:42;15.65;;;8.30;;
34828;SDS011;21042;47.620;12.188;2022-12-07T04:00:11;19.58;;;10.00;;
34828;SDS011;21042;47.620;12.188;2022-12-07T04:02:39;22.80;;;9.30;;
34828;SDS011;21042;47.620;12.188;2022-12-07T04:05:07;18.38;;;9.88;;
34828;SDS011;21042;47.620;12.188;2022-12-07T04:07:34;18.38;;;9.43;;
34828;SDS011;21042;47.620;12.188;2022-12-07T04:10:02;18.55;;;9.85;;
34828;SDS011;21042;47.620;12.188;2022-12-07T04:12:30;16.92;;;8.68;;
34828;SDS011;21042;47.620;12.188;2022-12-07T04:14:57;18.25;;;9.18;;
34828;SDS011;21042;47.620;12.188;2022-12-07T04:17:23;19.42;;;9.10;;
34828;SDS011;21042;47.620;12.188;2022-12-07T04:19:50;13.38;;;6.85;;
34828;SDS011;21042;47.620;12.188;2022-12-07T04:22:17;18.98;;;8.52;;
34828;SDS011;21042;47.620;12.188;2022-12-07T04:24:43;21.00;;;8.85;;
34828;SDS011;21042;47.620;12.188;2022-12-07T04:27:10;15.20;;;7.35;;
34828;SDS011;21042;47.620;12.188;2022-12-07T04:29:37;14.57;;;6.65;;
34828;SDS011;21042;47.620;12.188;2022-12-07T04:32:03;17.42;;;8.30;;
34828;SDS011;21042;47.620;12.188;2022-12-07T04:34:30;16.63;;;8.60;;
34828;SDS011;21042;47.620;12.188;2022-12-07T04:36:57;17.55;;;9.43;;
34828;SDS011;21042;47.620;12.188;2022-12-07T04:39:25;17.70;;;8.63;;
34828;SDS011;21042;47.620;12.188;2022-12-07T04:41:54;23.95;;;10.65;;
34828;SDS011;21042;47.620;12.188;2022-12-07T04:44:22;21.48;;;9.95;;
34828;SDS011;21042;47.620;12.188;2022-12-07T04:46:50;20.27;;;9.65;;
34828;SDS011;21042;47.620;12.188;2022-12-07T04:49:17;25.35;;;11.30;;
34828;SDS011;21042;47.620;12.188;2022-12-07T04:51:45;18.50;;;9.05;;
34828;SDS011;21042;47.620;12.188;2022-12-07T04:54:12;15.60;;;8.68;;
34828;SDS011;21042;47.620;12.188;2022-12-07T04:56:40;19.50;;;9.60;;
34828;SDS011;21042;47.620;12.188;2022-12-07T04:59:07;19.58;;;9.32;;
34828;SDS011;21042;47.620;12.188;2022-12-07T05:01:35;18.35;;;9.50;;
34828;SDS011;21042;47.620;12.188;2022-12-07T05:04:02;23.23;;;10.82;;
34828;SDS011;21042;47.620;12.188;2022-12-07T05:06:28;26.23;;;11.00;;
34828;SDS011;21042;47.620;12.188;2022-12-07T05:08:55;19.17;;;7.88;;
34828;SDS011;21042;47.620;12.188;2022-12-07T05:11:22;22.60;;;8.52;;
34828;SDS011;21042;47.620;12.188;2022-12-07T05:14:12;21.67;;;11.85;;
34828;SDS011;21042;47.620;12.188;2022-12-07T05:16:40;26.25;;;11.93;;
34828;SDS011;21042;47.620;12.188;2022-12-07T05:19:08;19.27;;;10.15;;
34828;SDS011;21042;47.620;12.188;2022-12-07T05:21:36;31.90;;;10.73;;
34828;SDS011;21042;47.620;12.188;2022-12-07T05:24:04;21.08;;;10.25;;
34828;SDS011;21042;47.620;12.188;2022-12-07T05:26:32;26.27;;;12.07;;
34828;SDS011;21042;47.620;12.188;2022-12-07T05:28:58;27.13;;;12.50;;
34828;SDS011;21042;47.620;12.188;2022-12-07T05:31:26;28.70;;;13.00;;
34828;SDS011;21042;47.620;12.188;2022-12-07T05:33:53;25.98;;;13.10;;
34828;SDS011;21042;47.620;12.188;2022-12-07T05:36:20;24.75;;;12.05;;
34828;SDS011;21042;47.620;12.188;2022-12-07T05:38:47;23.70;;;11.27;;
34828;SDS011;21042;47.620;12.188;2022-12-07T05:41:15;25.42;;;11.20;;
34828;SDS011;21042;47.620;12.188;2022-12-07T05:44:02;21.13;;;10.27;;
34828;SDS011;21042;47.620;12.188;2022-12-07T05:46:29;20.65;;;10.20;;
34828;SDS011;21042;47.620;12.188;2022-12-07T05:48:56;14.10;;;7.97;;
34828;SDS011;21042;47.620;12.188;2022-12-07T05:51:23;14.10;;;7.45;;
34828;SDS011;21042;47.620;12.188;2022-12-07T05:53:50;24.52;;;10.20;;
34828;SDS011;21042;47.620;12.188;2022-12-07T05:56:16;21.02;;;8.98;;
34828;SDS011;21042;47.620;12.188;2022-12-07T05:58:43;24.55;;;10.90;;
34828;SDS011;21042;47.620;12.188;2022-12-07T06:01:28;22.42;;;10.60;;
34828;SDS011;21042;47.620;12.188;2022-12-07T06:03:55;16.70;;;7.60;;
34828;SDS011;21042;47.620;12.188;2022-12-07T06:06:22;27.73;;;13.13;;
34828;SDS011;21042;47.620;12.188;2022-12-07T06:08:48;30.55;;;14.32;;
34828;SDS011;21042;47.620;12.188;2022-12-07T06:11:15;35.85;;;15.05;;
34828;SDS011;21042;47.620;12.188;2022-12-07T06:14:00;38.80;;;14.55;;
34828;SDS011;21042;47.620;12.188;2022-12-07T06:16:27;17.75;;;8.88;;
34828;SDS011;21042;47.620;12.188;2022-12-07T06:18:54;29.40;;;14.13;;
34828;SDS011;21042;47.620;12.188;2022-12-07T06:21:21;26.15;;;11.93;;
34828;SDS011;21042;47.620;12.188;2022-12-07T06:23:48;21.65;;;11.15;;
34828;SDS011;21042;47.620;12.188;2022-12-07T06:26:14;24.63;;;12.48;;
34828;SDS011;21042;47.620;12.188;2022-12-07T06:28:41;21.02;;;11.48;;
34828;SDS011;21042;47.620;12.188;2022-12-07T06:31:08;17.83;;;8.35;;
34828;SDS011;21042;47.620;12.188;2022-12-07T06:33:40;31.70;;;12.25;;
34828;SDS011;21042;47.620;12.188;2022-12-07T06:36:07;28.80;;;13.35;;
34828;SDS011;21042;47.620;12.188;2022-12-07T06:38:34;25.85;;;12.10;;
34828;SDS011;21042;47.620;12.188;2022-12-07T06:41:01;28.50;;;12.48;;
34828;SDS011;21042;47.620;12.188;2022-12-07T06:43:28;27.50;;;12.25;;
34828;SDS011;21042;47.620;12.188;2022-12-07T06:45:55;24.83;;;11.52;;
34828;SDS011;21042;47.620;12.188;2022-12-07T06:48:22;23.95;;;11.65;;
34828;SDS011;21042;47.620;12.188;2022-12-07T06:50:49;25.67;;;11.75;;
34828;SDS011;21042;47.620;12.188;2022-12-07T06:53:20;24.92;;;11.70;;
34828;SDS011;21042;47.620;12.188;2022-12-07T06:58:14;21.85;;;10.60;;
34828;SDS011;21042;47.620;12.188;2022-12-07T07:00:41;16.05;;;7.63;;
34828;SDS011;21042;47.620;12.188;2022-12-07T07:03:08;24.08;;;11.35;;
34828;SDS011;21042;47.620;12.188;2022-12-07T07:05:35;22.52;;;10.98;;
34828;SDS011;21042;47.620;12.188;2022-12-07T07:08:02;21.40;;;10.95;;
34828;SDS011;21042;47.620;12.188;2022-12-07T07:10:47;22.38;;;12.52;;
34828;SDS011;21042;47.620;12.188;2022-12-07T07:13:14;28.20;;;11.85;;
34828;SDS011;21042;47.620;12.188;2022-12-07T07:15:41;24.00;;;11.95;;
34828;SDS011;21042;47.620;12.188;2022-12-07T07:18:08;26.35;;;12.18;;
34828;SDS011;21042;47.620;12.188;2022-12-07T07:20:35;23.02;;;11.45;;
34828;SDS011;21042;47.620;12.188;2022-12-07T07:23:03;24.75;;;11.23;;
34828;SDS011;21042;47.620;12.188;2022-12-07T07:25:30;26.30;;;12.32;;
34828;SDS011;21042;47.620;12.188;2022-12-07T07:27:57;29.67;;;13.43;;
34828;SDS011;21042;47.620;12.188;2022-12-07T07:30:25;29.90;;;12.77;;
34828;SDS011;21042;47.620;12.188;2022-12-07T07:32:56;30.42;;;13.23;;
34828;SDS011;21042;47.620;12.188;2022-12-07T07:35:24;25.83;;;12.60;;
34828;SDS011;21042;47.620;12.188;2022-12-07T07:37:51;23.60;;;11.52;;
34828;SDS011;21042;47.620;12.188;2022-12-07T07:40:18;25.90;;;12.52;;
34828;SDS011;21042;47.620;12.188;2022-12-07T07:42:48;21.67;;;8.80;;
34828;SDS011;21042;47.620;12.188;2022-12-07T07:45:16;28.17;;;13.93;;
34828;SDS011;21042;47.620;12.188;2022-12-07T07:47:43;26.50;;;11.77;;
34828;SDS011;21042;47.620;12.188;2022-12-07T07:50:10;24.58;;;12.93;;
34828;SDS011;21042;47.620;12.188;2022-12-07T07:52:37;24.77;;;12.15;;
34828;SDS011;21042;47.620;12.188;2022-12-07T07:55:04;25.58;;;12.13;;
34828;SDS011;21042;47.620;12.188;2022-12-07T07:57:31;26.75;;;13.25;;
34828;SDS011;21042;47.620;12.188;2022-12-07T07:59:58;28.33;;;12.43;;
34828;SDS011;21042;47.620;12.188;2022-12-07T08:02:25;30.02;;;14.18;;
34828;SDS011;21042;47.620;12.188;2022-12-07T08:04:52;31.70;;;14.18;;
34828;SDS011;21042;47.620;12.188;2022-12-07T08:07:18;26.60;;;14.63;;
34828;SDS011;21042;47.620;12.188;2022-12-07T08:09:46;32.33;;;15.50;;
34828;SDS011;21042;47.620;12.188;2022-12-07T08:12:13;30.98;;;15.75;;
34828;SDS011;21042;47.620;12.188;2022-12-07T08:14:39;41.97;;;18.20;;
34828;SDS011;21042;47.620;12.188;2022-12-07T08:17:07;32.15;;;15.88;;
34828;SDS011;21042;47.620;12.188;2022-12-07T08:19:34;20.92;;;9.73;;
34828;SDS011;21042;47.620;12.188;2022-12-07T08:22:00;10.75;;;5.63;;
34828;SDS011;21042;47.620;12.188;2022-12-07T08:24:28;15.70;;;7.10;;
34828;SDS011;21042;47.620;12.188;2022-12-07T08:26:54;6.30;;;3.80;;
34828;SDS011;21042;47.620;12.188;2022-12-07T08:29:21;11.15;;;5.43;;
34828;SDS011;21042;47.620;12.188;2022-12-07T08:31:48;10.10;;;5.65;;
34828;SDS011;21042;47.620;12.188;2022-12-07T08:34:14;9.00;;;4.50;;
34828;SDS011;21042;47.620;12.188;2022-12-07T08:36:41;8.20;;;4.40;;
34828;SDS011;21042;47.620;12.188;2022-12-07T08:39:08;14.35;;;6.43;;
34828;SDS011;21042;47.620;12.188;2022-12-07T08:41:55;16.63;;;8.50;;
34828;SDS011;21042;47.620;12.188;2022-12-07T08:44:21;14.75;;;7.45;;
34828;SDS011;21042;47.620;12.188;2022-12-07T08:46:53;14.30;;;7.32;;
34828;SDS011;21042;47.620;12.188;2022-12-07T08:49:38;17.25;;;7.63;;
34828;SDS011;21042;47.620;12.188;2022-12-07T08:52:07;16.25;;;8.02;;
34828;SDS011;21042;47.620;12.188;2022-12-07T08:54:34;16.05;;;8.05;;
34828;SDS011;21042;47.620;12.188;2022-12-07T08:57:03;13.02;;;7.07;;
34828;SDS011;21042;47.620;12.188;2022-12-07T08:59:31;16.58;;;8.07;;
34828;SDS011;21042;47.620;12.188;2022-12-07T09:02:01;17.95;;;7.78;;
34828;SDS011;21042;47.620;12.188;2022-12-07T09:04:27;19.20;;;7.97;;
34828;SDS011;21042;47.620;12.188;2022-12-07T09:06:54;15.85;;;7.90;;
34828;SDS011;21042;47.620;12.188;2022-12-07T09:09:21;17.65;;;8.88;;
34828;SDS011;21042;47.620;12.188;2022-12-07T09:11:48;15.93;;;8.25;;
34828;SDS011;21042;47.620;12.188;2022-12-07T09:14:15;19.83;;;9.40;;
34828;SDS011;21042;47.620;12.188;2022-12-07T09:16:43;21.85;;;9.23;;
34828;SDS011;21042;47.620;12.188;2022-12-07T09:19:09;17.20;;;7.55;;
34828;SDS011;21042;47.620;12.188;2022-12-07T09:21:36;13.23;;;6.55;;
34828;SDS011;21042;47.620;12.188;2022-12-07T09:24:03;18.20;;;9.50;;
34828;SDS011;21042;47.620;12.188;2022-12-07T09:26:30;18.98;;;9.60;;
34828;SDS011;21042;47.620;12.188;2022-12-07T09:28:57;24.13;;;11.10;;
34828;SDS011;21042;47.620;12.188;2022-12-07T09:31:23;17.98;;;10.02;;
34828;SDS011;21042;47.620;12.188;2022-12-07T09:33:55;19.02;;;9.40;;
34828;SDS011;21042;47.620;12.188;2022-12-07T09:36:27;23.85;;;11.25;;
34828;SDS011;21042;47.620;12.188;2022-12-07T09:38:55;19.92;;;9.68;;
34828;SDS011;21042;47.620;12.188;2022-12-07T09:41:22;14.93;;;7.25;;
34828;SDS011;21042;47.620;12.188;2022-12-07T09:43:50;21.23;;;10.27;;
34828;SDS011;21042;47.620;12.188;2022-12-07T09:46:17;28.98;;;12.02;;
34828;SDS011;21042;47.620;12.188;2022-12-07T09:48:46;24.23;;;11.98;;
34828;SDS011;21042;47.620;12.188;2022-12-07T09:51:16;22.80;;;11.75;;
34828;SDS011;21042;47.620;12.188;2022-12-07T09:53:52;21.40;;;10.40;;
34828;SDS011;21042;47.620;12.188;2022-12-07T09:56:20;21.67;;;10.57;;
34828;SDS011;21042;47.620;12.188;2022-12-07T09:58:49;20.75;;;11.15;;
34828;SDS011;21042;47.620;12.188;2022-12-07T10:01:18;22.65;;;11.13;;
34828;SDS011;21042;47.620;12.188;2022-12-07T10:06:15;19.42;;;11.00;;
34828;SDS011;21042;47.620;12.188;2022-12-07T10:08:42;20.05;;;10.73;;
34828;SDS011;21042;47.620;12.188;2022-12-07T10:11:10;22.30;;;10.38;;
34828;SDS011;21042;47.620;12.188;2022-12-07T10:13:38;21.20;;;10.40;;
34828;SDS011;21042;47.620;12.188;2022-12-07T10:16:16;22.92;;;10.07;;
34828;SDS011;21042;47.620;12.188;2022-12-07T10:19:17;16.10;;;8.65;;
34828;SDS011;21042;47.620;12.188;2022-12-07T10:22:05;17.27;;;9.88;;
34828;SDS011;21042;47.620;12.188;2022-12-07T10:24:35;20.50;;;9.55;;
34828;SDS011;21042;47.620;12.188;2022-12-07T10:27:05;15.80;;;8.55;;
34828;SDS011;21042;47.620;12.188;2022-12-07T10:29:56;15.93;;;7.95;;
34828;SDS011;21042;47.620;12.188;2022-12-07T10:32:27;16.70;;;8.55;;
34828;SDS011;21042;47.620;12.188;2022-12-07T10:37:53;15.52;;;8.15;;
34828;SDS011;21042;47.620;12.188;2022-12-07T10:40:34;13.80;;;6.85;;
34828;SDS011;21042;47.620;12.188;2022-12-07T10:43:37;14.43;;;6.65;;
34828;SDS011;21042;47.620;12.188;2022-12-07T10:54:18;22.42;;;10.85;;
34828;SDS011;21042;47.620;12.188;2022-12-07T11:00:22;25.48;;;12.20;;
34828;SDS011;21042;47.620;12.188;2022-12-07T11:21:58;29.20;;;12.93;;
34828;SDS011;21042;47.620;12.188;2022-12-07T11:24:44;31.42;;;14.10;;
34828;SDS011;21042;47.620;12.188;2022-12-07T11:30:18;17.40;;;8.38;;
34828;SDS011;21042;47.620;12.188;2022-12-07T11:38:16;17.20;;;9.38;;
34828;SDS011;21042;47.620;12.188;2022-12-07T11:40:54;16.77;;;9.27;;
34828;SDS011;21042;47.620;12.188;2022-12-07T11:43:50;20.33;;;10.13;;
34828;SDS011;21042;47.620;12.188;2022-12-07T11:49:27;19.33;;;8.40;;
34828;SDS011;21042;47.620;12.188;2022-12-07T11:52:20;20.67;;;9.02;;
34828;SDS011;21042;47.620;12.188;2022-12-07T11:54:53;29.35;;;12.70;;
34828;SDS011;21042;47.620;12.188;2022-12-07T11:57:33;40.72;;;16.83;;
34828;SDS011;21042;47.620;12.188;2022-12-07T12:00:11;32.70;;;14.38;;
34828;SDS011;21042;47.620;12.188;2022-12-07T12:02:43;24.48;;;11.75;;
34828;SDS011;21042;47.620;12.188;2022-12-07T12:05:19;31.55;;;13.82;;
34828;SDS011;21042;47.620;12.188;2022-12-07T12:07:52;29.98;;;13.68;;
34828;SDS011;21042;47.620;12.188;2022-12-07T12:11:08;15.90;;;7.90;;
34828;SDS011;21042;47.620;12.188;2022-12-07T12:16:58;21.33;;;9.63;;
34828;SDS011;21042;47.620;12.188;2022-12-07T12:25:28;15.85;;;7.45;;
34828;SDS011;21042;47.620;12.188;2022-12-07T12:27:58;32.17;;;12.13;;
34828;SDS011;21042;47.620;12.188;2022-12-07T12:30:28;17.70;;;8.90;;
34828;SDS011;21042;47.620;12.188;2022-12-07T12:35:33;10.55;;;5.90;;
34828;SDS011;21042;47.620;12.188;2022-12-07T12:40:53;13.07;;;6.93;;
34828;SDS011;21042;47.620;12.188;2022-12-07T12:43:40;9.80;;;5.63;;
34828;SDS011;21042;47.620;12.188;2022-12-07T13:02:26;15.13;;;7.70;;
34828;SDS011;21042;47.620;12.188;2022-12-07T13:04:58;13.20;;;7.10;;
34828;SDS011;21042;47.620;12.188;2022-12-07T13:23:36;15.80;;;8.10;;
34828;SDS011;21042;47.620;12.188;2022-12-07T13:31:40;20.30;;;9.40;;
34828;SDS011;21042;47.620;12.188;2022-12-07T13:36:56;16.10;;;8.65;;
34828;SDS011;21042;47.620;12.188;2022-12-07T13:39:24;13.27;;;6.70;;
34828;SDS011;21042;47.620;12.188;2022-12-07T13:41:53;17.77;;;9.30;;
34828;SDS011;21042;47.620;12.188;2022-12-07T13:44:25;17.60;;;8.98;;
34828;SDS011;21042;47.620;12.188;2022-12-07T13:49:46;17.50;;;9.48;;
34828;SDS011;21042;47.620;12.188;2022-12-07T13:52:42;17.30;;;9.95;;
34828;SDS011;21042;47.620;12.188;2022-12-07T13:55:14;18.88;;;9.15;;
34828;SDS011;21042;47.620;12.188;2022-12-07T13:57:43;18.52;;;9.15;;
34828;SDS011;21042;47.620;12.188;2022-12-07T14:00:14;19.17;;;9.18;;
34828;SDS011;21042;47.620;12.188;2022-12-07T14:05:24;14.75;;;7.63;;
34828;SDS011;21042;47.620;12.188;2022-12-07T14:07:56;15.23;;;6.95;;
34828;SDS011;21042;47.620;12.188;2022-12-07T14:13:03;12.73;;;7.53;;
34828;SDS011;21042;47.620;12.188;2022-12-07T14:15:52;13.65;;;6.85;;
34828;SDS011;21042;47.620;12.188;2022-12-07T14:18:53;11.23;;;6.03;;
34828;SDS011;21042;47.620;12.188;2022-12-07T14:23:39;12.32;;;6.75;;
34828;SDS011;21042;47.620;12.188;2022-12-07T14:26:07;11.77;;;6.88;;
34828;SDS011;21042;47.620;12.188;2022-12-07T14:28:42;12.73;;;6.10;;
34828;SDS011;21042;47.620;12.188;2022-12-07T14:31:14;11.43;;;6.53;;
34828;SDS011;21042;47.620;12.188;2022-12-07T14:33:50;13.85;;;7.35;;
34828;SDS011;21042;47.620;12.188;2022-12-07T14:36:17;11.85;;;6.88;;
34828;SDS011;21042;47.620;12.188;2022-12-07T14:38:43;10.63;;;5.93;;
34828;SDS011;21042;47.620;12.188;2022-12-07T14:41:12;10.95;;;6.05;;
34828;SDS011;21042;47.620;12.188;2022-12-07T14:43:59;11.20;;;6.15;;
34828;SDS011;21042;47.620;12.188;2022-12-07T14:46:47;12.32;;;6.35;;
34828;SDS011;21042;47.620;12.188;2022-12-07T14:49:14;11.98;;;6.30;;
34828;SDS011;21042;47.620;12.188;2022-12-07T14:51:57;13.35;;;6.78;;
34828;SDS011;21042;47.620;12.188;2022-12-07T14:54:44;11.95;;;6.78;;
34828;SDS011;21042;47.620;12.188;2022-12-07T14:57:11;15.05;;;7.50;;
34828;SDS011;21042;47.620;12.188;2022-12-07T14:59:38;15.90;;;7.50;;
34828;SDS011;21042;47.620;12.188;2022-12-07T15:02:11;15.45;;;7.15;;
34828;SDS011;21042;47.620;12.188;2022-12-07T15:04:39;12.20;;;7.22;;
34828;SDS011;21042;47.620;12.188;2022-12-07T15:07:14;13.43;;;7.50;;
34828;SDS011;21042;47.620;12.188;2022-12-07T15:09:44;18.58;;;8.23;;
34828;SDS011;21042;47.620;12.188;2022-12-07T15:12:11;15.98;;;8.10;;
34828;SDS011;21042;47.620;12.188;2022-12-07T15:14:38;18.00;;;8.65;;
34828;SDS011;21042;47.620;12.188;2022-12-07T15:17:05;20.35;;;9.05;;
34828;SDS011;21042;47.620;12.188;2022-12-07T15:19:35;18.55;;;9.57;;
34828;SDS011;21042;47.620;12.188;2022-12-07T15:22:02;22.80;;;11.13;;
34828;SDS011;21042;47.620;12.188;2022-12-07T15:24:29;22.70;;;11.35;;
34828;SDS011;21042;47.620;12.188;2022-12-07T15:26:56;26.13;;;11.25;;
34828;SDS011;21042;47.620;12.188;2022-12-07T15:29:22;27.55;;;11.80;;
34828;SDS011;21042;47.620;12.188;2022-12-07T15:31:50;27.20;;;12.43;;
34828;SDS011;21042;47.620;12.188;2022-12-07T15:34:24;33.53;;;12.85;;
34828;SDS011;21042;47.620;12.188;2022-12-07T15:36:51;36.55;;;14.80;;
34828;SDS011;21042;47.620;12.188;2022-12-07T15:39:18;34.33;;;13.75;;
34828;SDS011;21042;47.620;12.188;2022-12-07T15:41:45;29.77;;;12.13;;
34828;SDS011;21042;47.620;12.188;2022-12-07T15:44:12;18.30;;;9.45;;
34828;SDS011;21042;47.620;12.188;2022-12-07T15:47:18;20.38;;;9.13;;
34828;SDS011;21042;47.620;12.188;2022-12-07T15:49:44;13.68;;;7.60;;
34828;SDS011;21042;47.620;12.188;2022-12-07T15:52:11;15.38;;;7.85;;
34828;SDS011;21042;47.620;12.188;2022-12-07T15:54:38;16.17;;;8.07;;
34828;SDS011;21042;47.620;12.188;2022-12-07T15:57:05;18.75;;;9.20;;
34828;SDS011;21042;47.620;12.188;2022-12-07T15:59:32;23.75;;;10.75;;
34828;SDS011;21042;47.620;12.188;2022-12-07T16:01:59;21.05;;;10.32;;
34828;SDS011;21042;47.620;12.188;2022-12-07T16:04:26;35.72;;;16.85;;
34828;SDS011;21042;47.620;12.188;2022-12-07T16:06:54;23.85;;;11.75;;
34828;SDS011;21042;47.620;12.188;2022-12-07T16:09:21;19.45;;;10.45;;
34828;SDS011;21042;47.620;12.188;2022-12-07T16:11:48;14.27;;;8.75;;
34828;SDS011;21042;47.620;12.188;2022-12-07T16:14:16;17.30;;;8.73;;
34828;SDS011;21042;47.620;12.188;2022-12-07T16:16:42;16.30;;;9.18;;
34828;SDS011;21042;47.620;12.188;2022-12-07T16:19:09;21.50;;;12.30;;
34828;SDS011;21042;47.620;12.188;2022-12-07T16:21:37;31.33;;;15.05;;
34828;SDS011;21042;47.620;12.188;2022-12-07T16:24:04;26.45;;;13.80;;
34828;SDS011;21042;47.620;12.188;2022-12-07T16:26:31;26.65;;;13.38;;
34828;SDS011;21042;47.620;12.188;2022-12-07T16:28:59;22.67;;;11.63;;
34828;SDS011;21042;47.620;12.188;2022-12-07T16:31:26;23.67;;;12.40;;
34828;SDS011;21042;47.620;12.188;2022-12-07T16:33:55;22.13;;;9.95;;
34828;SDS011;21042;47.620;12.188;2022-12-07T16:36:24;24.73;;;10.93;;
34828;SDS011;21042;47.620;12.188;2022-12-07T16:39:13;26.05;;;11.63;;
34828;SDS011;21042;47.620;12.188;2022-12-07T16:41:40;25.52;;;12.18;;
34828;SDS011;21042;47.620;12.188;2022-12-07T16:44:07;20.35;;;9.65;;
34828;SDS011;21042;47.620;12.188;2022-12-07T16:46:39;24.52;;;11.68;;
34828;SDS011;21042;47.620;12.188;2022-12-07T16:49:09;22.30;;;12.35;;
34828;SDS011;21042;47.620;12.188;2022-12-07T16:51:38;22.27;;;11.98;;
34828;SDS011;21042;47.620;12.188;2022-12-07T16:56:32;25.40;;;13.43;;
34828;SDS011;21042;47.620;12.188;2022-12-07T16:58:58;23.75;;;12.68;;
34828;SDS011;21042;47.620;12.188;2022-12-07T17:01:25;24.77;;;13.18;;
34828;SDS011;21042;47.620;12.188;2022-12-07T17:03:55;23.63;;;12.38;;
34828;SDS011;21042;47.620;12.188;2022-12-07T17:06:26;24.42;;;12.13;;
34828;SDS011;21042;47.620;12.188;2022-12-07T17:08:53;20.58;;;9.85;;
34828;SDS011;21042;47.620;12.188;2022-12-07T17:11:21;23.98;;;11.75;;
34828;SDS011;21042;47.620;12.188;2022-12-07T17:13:50;22.95;;;11.43;;
34828;SDS011;21042;47.620;12.188;2022-12-07T17:16:36;30.02;;;12.85;;
34828;SDS011;21042;47.620;12.188;2022-12-07T17:21:34;27.45;;;13.13;;
34828;SDS011;21042;47.620;12.188;2022-12-07T17:24:01;22.92;;;11.63;;